createdAt,value
2023-05-05T00:01:33.447Z,15.10
2023-05-05T00:04:00.633Z,15.00
2023-05-05T00:06:31.630Z,14.90
2023-05-05T00:08:58.571Z,14.90
2023-05-05T00:11:26.363Z,14.80
2023-05-05T00:13:53.259Z,14.80
2023-05-05T00:16:20.439Z,14.70
2023-05-05T00:18:47.958Z,14.80
2023-05-05T00:21:15.786Z,14.70
2023-05-05T00:23:42.859Z,14.70
2023-05-05T00:26:10.078Z,14.60
2023-05-05T00:28:37.079Z,14.60
2023-05-05T00:31:03.997Z,14.60
2023-05-05T00:33:31.208Z,14.60
2023-05-05T00:35:58.098Z,14.60
2023-05-05T00:38:25.089Z,14.60
2023-05-05T00:40:52.054Z,14.50
2023-05-05T00:43:19.063Z,14.50
2023-05-05T00:45:48.110Z,14.50
2023-05-05T00:48:17.883Z,14.50
2023-05-05T00:50:45.315Z,14.40
2023-05-05T00:53:13.719Z,14.40
2023-05-05T00:55:40.781Z,14.30
2023-05-05T00:58:08.134Z,14.40
2023-05-05T01:00:35.109Z,14.40
2023-05-05T01:03:03.423Z,14.40
2023-05-05T01:05:38.416Z,14.40
2023-05-05T01:08:26.845Z,14.40
2023-05-05T01:10:59.012Z,14.40
2023-05-05T01:14:09.093Z,14.40
2023-05-05T01:16:41.700Z,14.50
2023-05-05T01:19:48.811Z,14.60
2023-05-05T01:22:19.989Z,14.70
2023-05-05T01:24:55.836Z,14.70
2023-05-05T01:27:44.878Z,14.80
2023-05-05T01:30:30.761Z,14.70
2023-05-05T01:33:06.738Z,14.70
2023-05-05T01:35:41.757Z,14.60
2023-05-05T01:38:15.043Z,14.60
2023-05-05T01:41:08.885Z,14.50
2023-05-05T01:43:37.199Z,14.50
2023-05-05T01:46:06.440Z,14.50
2023-05-05T01:48:34.048Z,14.50
2023-05-05T01:51:03.131Z,14.50
2023-05-05T01:53:32.842Z,14.60
2023-05-05T01:56:01.751Z,14.50
2023-05-05T01:58:30.280Z,14.50
2023-05-05T02:00:59.008Z,14.50
2023-05-05T02:03:27.690Z,14.40
2023-05-05T02:05:57.335Z,14.40
2023-05-05T02:08:25.548Z,14.40
2023-05-05T02:10:55.672Z,14.30
2023-05-05T02:13:25.006Z,14.30
2023-05-05T02:15:53.237Z,14.30
2023-05-05T02:18:22.147Z,14.20
2023-05-05T02:20:49.157Z,14.20
2023-05-05T02:23:16.335Z,14.20
2023-05-05T02:25:53.325Z,14.20
2023-05-05T02:28:47.645Z,14.10
2023-05-05T02:31:17.239Z,14.00
2023-05-05T02:33:45.771Z,13.90
2023-05-05T02:36:20.581Z,13.80
2023-05-05T02:38:52.172Z,13.80
2023-05-05T02:41:21.292Z,13.80
2023-05-05T02:43:50.555Z,13.70
2023-05-05T02:46:18.021Z,13.60
2023-05-05T02:48:45.335Z,13.60
2023-05-05T02:51:12.333Z,13.60
2023-05-05T02:53:39.628Z,13.60
2023-05-05T02:56:34.633Z,13.60
2023-05-05T02:59:08.914Z,13.50
2023-05-05T03:02:09.348Z,13.50
2023-05-05T03:04:59.628Z,13.40
2023-05-05T03:07:42.797Z,13.30
2023-05-05T03:10:15.084Z,13.20
2023-05-05T03:12:48.640Z,13.10
2023-05-05T03:15:16.072Z,13.10
2023-05-05T03:17:46.487Z,13.10
2023-05-05T03:20:15.136Z,13.10
2023-05-05T03:22:42.081Z,13.10
2023-05-05T03:25:09.410Z,13.10
2023-05-05T03:27:36.428Z,13.10
2023-05-05T03:30:03.808Z,13.10
2023-05-05T03:32:31.441Z,13.20
2023-05-05T03:34:58.543Z,13.30
2023-05-05T03:37:25.497Z,13.30
2023-05-05T03:39:52.565Z,13.30
2023-05-05T03:42:19.637Z,13.30
2023-05-05T03:44:46.637Z,13.30
2023-05-05T03:47:14.543Z,13.30
2023-05-05T03:49:41.623Z,13.30
2023-05-05T03:52:08.890Z,13.30
2023-05-05T03:54:36.206Z,13.40
2023-05-05T03:57:04.050Z,13.40
2023-05-05T03:59:31.325Z,13.50
2023-05-05T04:01:58.569Z,13.50
2023-05-05T04:04:25.543Z,13.60
2023-05-05T04:06:52.793Z,13.60
2023-05-05T04:09:19.837Z,13.70
2023-05-05T04:11:46.871Z,13.80
2023-05-05T04:14:13.937Z,13.80
2023-05-05T04:16:41.301Z,13.80
2023-05-05T04:19:08.669Z,13.70
2023-05-05T04:21:36.036Z,13.80
2023-05-05T04:24:03.690Z,13.80
2023-05-05T04:26:31.014Z,13.80
2023-05-05T04:28:57.889Z,13.90
2023-05-05T04:31:25.034Z,13.90
2023-05-05T04:33:51.941Z,13.90
2023-05-05T04:36:19.341Z,14.00
2023-05-05T04:38:46.302Z,14.00
2023-05-05T04:41:13.412Z,14.10
2023-05-05T04:43:41.087Z,14.00
2023-05-05T04:46:08.466Z,14.10
2023-05-05T04:48:37.097Z,14.20
2023-05-05T04:51:07.258Z,14.20
2023-05-05T04:53:34.417Z,14.20
2023-05-05T04:56:02.694Z,14.40
2023-05-05T04:58:29.974Z,14.40
2023-05-05T05:00:57.255Z,14.50
2023-05-05T05:03:25.056Z,14.50
2023-05-05T05:05:52.450Z,14.50
2023-05-05T05:08:19.362Z,14.50
2023-05-05T05:10:46.382Z,14.60
2023-05-05T05:13:13.487Z,14.60
2023-05-05T05:15:40.824Z,14.70
2023-05-05T05:18:07.752Z,14.70
2023-05-05T05:20:34.784Z,14.80
2023-05-05T05:23:04.655Z,14.80
2023-05-05T05:25:31.668Z,14.80
2023-05-05T05:28:09.354Z,15.00
2023-05-05T05:30:37.775Z,15.10
2023-05-05T05:33:04.821Z,15.20
2023-05-05T05:35:32.365Z,15.20
2023-05-05T05:37:59.277Z,15.30
2023-05-05T05:40:26.478Z,15.40
2023-05-05T05:42:53.508Z,15.50
2023-05-05T05:45:21.761Z,15.60
2023-05-05T05:47:49.297Z,15.70
2023-05-05T05:50:16.462Z,15.90
2023-05-05T05:52:43.524Z,16.00
2023-05-05T05:55:10.697Z,16.10
2023-05-05T05:57:38.156Z,16.10
2023-05-05T06:00:06.466Z,16.10
2023-05-05T06:02:33.880Z,16.30
2023-05-05T06:05:01.186Z,16.40
2023-05-05T06:07:28.192Z,16.50
2023-05-05T06:09:56.855Z,16.70
2023-05-05T06:12:23.933Z,16.90
2023-05-05T06:14:51.110Z,16.90
2023-05-05T06:17:18.037Z,17.10
2023-05-05T06:19:45.104Z,17.20
2023-05-05T06:22:12.055Z,17.40
2023-05-05T06:24:39.062Z,17.50
2023-05-05T06:27:06.231Z,17.80
2023-05-05T06:29:33.440Z,18.00
2023-05-05T06:32:01.353Z,18.20
2023-05-05T06:34:28.604Z,18.40
2023-05-05T06:36:56.383Z,18.50
2023-05-05T06:39:23.669Z,18.70
2023-05-05T06:41:50.798Z,18.80
2023-05-05T06:44:17.724Z,18.80
2023-05-05T06:46:44.709Z,18.70
2023-05-05T06:49:11.790Z,18.70
2023-05-05T06:51:40.509Z,18.60
2023-05-05T06:54:08.487Z,18.60
2023-05-05T06:56:35.717Z,18.60
2023-05-05T06:59:02.917Z,18.80
2023-05-05T07:01:29.818Z,19.00
2023-05-05T07:03:57.180Z,18.90
2023-05-05T07:06:24.246Z,19.00
2023-05-05T07:08:51.204Z,19.10
2023-05-05T07:11:20.878Z,19.30
2023-05-05T07:13:49.385Z,19.50
2023-05-05T07:16:16.374Z,19.50
2023-05-05T07:18:43.401Z,19.50
2023-05-05T07:21:10.287Z,19.50
2023-05-05T07:23:38.121Z,19.50
2023-05-05T07:26:05.200Z,19.50
2023-05-05T07:28:32.177Z,19.50
2023-05-05T07:30:59.352Z,19.50
2023-05-05T07:33:27.701Z,19.60
2023-05-05T07:35:54.789Z,19.60
2023-05-05T07:38:21.716Z,19.70
2023-05-05T07:40:48.588Z,19.60
2023-05-05T07:43:15.497Z,19.60
2023-05-05T07:45:42.465Z,19.60
2023-05-05T07:48:09.550Z,19.50
2023-05-05T07:50:36.765Z,19.50
2023-05-05T07:53:13.882Z,19.40
2023-05-05T07:55:41.979Z,19.30
2023-05-05T07:58:10.934Z,19.30
2023-05-05T08:00:38.533Z,19.20
2023-05-05T08:03:05.947Z,19.00
2023-05-05T08:05:33.789Z,19.00
2023-05-05T08:08:00.984Z,18.80
2023-05-05T08:10:28.073Z,18.70
2023-05-05T08:12:55.075Z,18.60
2023-05-05T08:15:22.336Z,18.60
2023-05-05T08:17:51.569Z,18.70
2023-05-05T08:20:19.972Z,18.70
2023-05-05T08:22:47.748Z,18.80
2023-05-05T08:25:15.137Z,19.00
2023-05-05T08:27:43.363Z,19.20
2023-05-05T08:30:11.142Z,19.20
2023-05-05T08:32:38.666Z,19.30
2023-05-05T08:35:07.262Z,19.40
2023-05-05T08:37:34.963Z,19.40
2023-05-05T08:40:02.182Z,19.20
2023-05-05T08:42:38.192Z,19.10
2023-05-05T08:45:07.695Z,19.30
2023-05-05T08:47:36.142Z,19.30
2023-05-05T08:50:05.805Z,19.30
2023-05-05T08:52:39.818Z,19.30
2023-05-05T08:55:19.729Z,19.30
2023-05-05T08:57:56.718Z,19.40
2023-05-05T09:00:24.792Z,19.50
2023-05-05T09:02:52.742Z,19.40
2023-05-05T09:05:19.969Z,19.30
2023-05-05T09:07:47.509Z,19.30
2023-05-05T09:10:14.909Z,19.50
2023-05-05T09:12:42.142Z,19.60
2023-05-05T09:15:11.978Z,19.60
2023-05-05T09:17:40.335Z,19.50
2023-05-05T09:20:14.363Z,19.30
2023-05-05T09:22:43.569Z,19.30
2023-05-05T09:25:13.575Z,19.50
2023-05-05T09:27:46.096Z,19.60
2023-05-05T09:30:16.855Z,19.90
2023-05-05T09:32:50.936Z,20.10
2023-05-05T09:35:19.102Z,20.40
2023-05-05T09:37:46.395Z,20.80
2023-05-05T09:40:15.051Z,21.10
2023-05-05T09:42:42.233Z,21.30
2023-05-05T09:45:18.500Z,21.60
2023-05-05T09:47:48.254Z,21.70
2023-05-05T09:50:19.035Z,21.80
2023-05-05T09:53:03.411Z,22.00
2023-05-05T09:55:31.609Z,22.10
2023-05-05T09:58:20.698Z,22.20
2023-05-05T10:00:48.067Z,22.40
2023-05-05T10:03:15.518Z,22.60
2023-05-05T10:05:52.671Z,22.60
2023-05-05T10:08:21.923Z,22.80
2023-05-05T10:10:54.372Z,22.40
2023-05-05T10:13:23.977Z,22.50
2023-05-05T10:15:53.509Z,22.80
2023-05-05T10:18:28.561Z,23.00
2023-05-05T10:21:05.058Z,23.40
2023-05-05T10:24:00.575Z,23.70
2023-05-05T10:26:28.319Z,23.90
2023-05-05T10:28:56.767Z,24.00
2023-05-05T10:31:49.940Z,24.00
2023-05-05T10:34:40.817Z,24.10
2023-05-05T10:37:08.150Z,24.30
2023-05-05T10:39:37.885Z,24.50
2023-05-05T10:42:05.389Z,24.60
2023-05-05T10:44:33.718Z,24.90
2023-05-05T10:47:02.191Z,25.00
2023-05-05T10:49:51.077Z,24.80
2023-05-05T10:52:28.454Z,24.60
2023-05-05T10:55:01.490Z,24.50
2023-05-05T10:57:29.635Z,24.20
2023-05-05T10:59:57.112Z,24.00
2023-05-05T11:02:28.545Z,24.20
2023-05-05T11:05:18.415Z,24.30
2023-05-05T11:07:46.803Z,24.40
2023-05-05T11:10:15.825Z,24.50
2023-05-05T11:12:52.325Z,24.40
2023-05-05T11:15:29.045Z,24.60
2023-05-05T11:17:57.418Z,24.80
2023-05-05T11:20:43.665Z,24.90
2023-05-05T11:23:10.802Z,25.20
2023-05-05T11:25:38.992Z,25.50
2023-05-05T11:28:10.289Z,25.80
2023-05-05T11:30:58.020Z,26.00
2023-05-05T11:33:37.105Z,25.90
2023-05-05T11:36:15.060Z,25.60
2023-05-05T11:38:56.827Z,25.40
2023-05-05T11:41:33.046Z,25.00
2023-05-05T11:44:12.932Z,24.60
2023-05-05T11:46:41.357Z,24.40
2023-05-05T11:49:09.443Z,24.50
2023-05-05T11:51:37.501Z,24.70
2023-05-05T11:54:05.657Z,24.70
2023-05-05T11:56:33.044Z,25.00
2023-05-05T11:59:11.153Z,25.20
2023-05-05T12:01:42.312Z,25.40
2023-05-05T12:04:16.270Z,25.80
2023-05-05T12:06:43.822Z,25.90
2023-05-05T12:09:18.422Z,25.80
2023-05-05T12:11:53.545Z,25.90
2023-05-05T12:14:21.522Z,25.90
2023-05-05T12:17:07.708Z,25.90
2023-05-05T12:19:36.235Z,25.50
2023-05-05T12:22:04.700Z,25.40
2023-05-05T12:24:31.828Z,25.20
2023-05-05T12:27:12.255Z,25.00
2023-05-05T12:29:39.687Z,24.50
2023-05-05T12:32:07.088Z,24.30
2023-05-05T12:34:34.408Z,24.10
2023-05-05T12:37:01.781Z,24.30
2023-05-05T12:39:36.574Z,24.60
2023-05-05T12:42:04.515Z,24.90
2023-05-05T12:44:38.565Z,24.90
2023-05-05T12:47:06.256Z,24.80
2023-05-05T12:49:46.023Z,24.80
2023-05-05T12:52:14.352Z,24.60
2023-05-05T12:54:57.492Z,24.80
2023-05-05T12:57:25.584Z,25.00
2023-05-05T12:59:53.393Z,25.10
2023-05-05T13:02:21.247Z,25.30
2023-05-05T13:04:53.202Z,25.60
2023-05-05T13:07:22.053Z,25.70
2023-05-05T13:09:50.025Z,25.70
2023-05-05T13:12:22.152Z,25.50
2023-05-05T13:14:50.514Z,25.30
2023-05-05T13:17:17.539Z,25.20
2023-05-05T13:19:47.368Z,25.10
2023-05-05T13:22:14.395Z,24.60
2023-05-05T13:24:51.937Z,24.50
2023-05-05T13:27:20.584Z,24.50
2023-05-05T13:29:48.019Z,24.50
2023-05-05T13:32:15.155Z,24.30
2023-05-05T13:34:45.062Z,24.00
2023-05-05T13:37:13.952Z,23.60
2023-05-05T13:39:40.918Z,23.50
2023-05-05T13:42:08.082Z,23.60
2023-05-05T13:44:35.643Z,24.00
2023-05-05T13:47:03.071Z,24.50
2023-05-05T13:49:30.082Z,24.70
2023-05-05T13:51:57.325Z,24.90
2023-05-05T13:54:24.318Z,24.90
2023-05-05T13:56:51.373Z,25.00
2023-05-05T13:59:18.355Z,25.50
2023-05-05T14:01:45.353Z,25.60
2023-05-05T14:04:12.372Z,25.70
2023-05-05T14:06:39.822Z,25.80
2023-05-05T14:09:08.009Z,25.70
2023-05-05T14:11:34.959Z,25.90
2023-05-05T14:14:01.986Z,26.30
2023-05-05T14:16:29.170Z,26.30
2023-05-05T14:18:56.119Z,25.80
2023-05-05T14:21:23.316Z,25.40
2023-05-05T14:23:50.558Z,25.30
2023-05-05T14:26:17.876Z,25.20
2023-05-05T14:28:46.774Z,24.90
2023-05-05T14:31:15.266Z,24.80
2023-05-05T14:33:42.204Z,24.90
2023-05-05T14:36:09.344Z,25.00
2023-05-05T14:38:36.447Z,25.10
2023-05-05T14:41:03.391Z,25.10
2023-05-05T14:43:30.649Z,24.90
2023-05-05T14:46:00.267Z,25.00
2023-05-05T14:48:28.208Z,24.90
2023-05-05T14:50:55.731Z,24.90
2023-05-05T14:53:22.854Z,24.80
2023-05-05T14:55:50.015Z,24.80
2023-05-05T14:58:18.809Z,24.50
2023-05-05T15:00:45.835Z,24.30
2023-05-05T15:03:12.960Z,24.20
2023-05-05T15:05:40.024Z,24.20
2023-05-05T15:08:07.051Z,24.00
2023-05-05T15:10:34.047Z,23.90
2023-05-05T15:13:01.214Z,23.70
2023-05-05T15:15:28.326Z,23.60
2023-05-05T15:17:55.357Z,23.50
2023-05-05T15:20:22.409Z,23.30
2023-05-05T15:22:49.723Z,23.20
2023-05-05T15:25:18.820Z,23.00
2023-05-05T15:27:45.923Z,22.90
2023-05-05T15:30:14.155Z,22.80
2023-05-05T15:32:41.746Z,22.70
2023-05-05T15:35:09.250Z,22.70
2023-05-05T15:37:37.804Z,22.60
2023-05-05T15:40:08.356Z,22.40
2023-05-05T15:42:35.352Z,22.30
2023-05-05T15:45:02.844Z,22.20
2023-05-05T15:47:29.832Z,22.20
2023-05-05T15:49:56.964Z,22.00
2023-05-05T15:52:23.962Z,21.90
2023-05-05T15:54:51.223Z,21.90
2023-05-05T15:57:18.505Z,21.90
2023-05-05T15:59:45.600Z,21.90
2023-05-05T16:02:12.887Z,21.90
2023-05-05T16:04:39.992Z,21.80
2023-05-05T16:07:06.996Z,21.90
2023-05-05T16:09:34.277Z,21.90
2023-05-05T16:12:01.445Z,21.80
2023-05-05T16:14:28.628Z,21.40
2023-05-05T16:16:55.784Z,21.00
2023-05-05T16:19:23.439Z,20.50
2023-05-05T16:21:50.586Z,20.00
2023-05-05T16:24:17.590Z,19.50
2023-05-05T16:26:44.882Z,19.30
2023-05-05T16:29:12.557Z,19.10
2023-05-05T16:31:39.853Z,18.90
2023-05-05T16:34:07.159Z,18.80
2023-05-05T16:36:34.271Z,18.60
2023-05-05T16:39:01.316Z,18.50
2023-05-05T16:41:28.774Z,18.40
2023-05-05T16:43:56.242Z,18.20
2023-05-05T16:46:23.253Z,18.20
2023-05-05T16:48:50.708Z,18.00
2023-05-05T16:51:17.825Z,18.00
2023-05-05T16:53:46.617Z,17.90
2023-05-05T16:56:14.826Z,17.60
2023-05-05T16:58:41.948Z,17.30
2023-05-05T17:01:08.921Z,17.30
2023-05-05T17:03:36.114Z,17.30
2023-05-05T17:06:03.356Z,17.30
2023-05-05T17:08:30.806Z,17.20
2023-05-05T17:10:57.970Z,17.20
2023-05-05T17:13:24.959Z,17.10
2023-05-05T17:15:52.108Z,17.30
2023-05-05T17:18:21.329Z,17.40
2023-05-05T17:20:49.925Z,17.50
2023-05-05T17:23:16.983Z,17.30
2023-05-05T17:25:44.165Z,17.30
2023-05-05T17:28:11.405Z,17.40
2023-05-05T17:30:38.565Z,17.50
2023-05-05T17:33:05.561Z,17.70
2023-05-05T17:35:32.732Z,17.80
2023-05-05T17:37:59.685Z,17.90
2023-05-05T17:40:26.790Z,18.00
2023-05-05T17:42:54.073Z,18.00
2023-05-05T17:45:21.012Z,18.10
2023-05-05T17:47:47.970Z,18.10
2023-05-05T17:50:14.988Z,18.10
2023-05-05T17:52:43.170Z,18.10
2023-05-05T17:55:10.575Z,18.00
2023-05-05T17:57:38.232Z,17.70
2023-05-05T18:00:09.030Z,17.50
2023-05-05T18:02:37.218Z,17.40
2023-05-05T18:05:04.837Z,17.30
2023-05-05T18:07:33.623Z,17.40
2023-05-05T18:10:00.523Z,17.40
2023-05-05T18:12:27.402Z,17.30
2023-05-05T18:14:54.317Z,17.10
2023-05-05T18:17:21.416Z,16.90
2023-05-05T18:19:49.345Z,16.90
2023-05-05T18:22:16.540Z,16.90
2023-05-05T18:24:43.635Z,16.80
2023-05-05T18:27:11.023Z,16.80
2023-05-05T18:29:38.469Z,16.70
2023-05-05T18:32:08.584Z,16.50
2023-05-05T18:34:35.732Z,16.40
2023-05-05T18:37:02.859Z,16.30
2023-05-05T18:39:30.386Z,16.20
2023-05-05T18:41:57.546Z,16.20
2023-05-05T18:44:24.673Z,16.10
2023-05-05T18:46:51.801Z,16.20
2023-05-05T18:49:18.871Z,16.10
2023-05-05T18:51:46.205Z,16.10
2023-05-05T18:54:13.452Z,16.00
2023-05-05T18:56:40.904Z,16.00
2023-05-05T18:59:08.256Z,16.00
2023-05-05T19:01:35.393Z,15.90
2023-05-05T19:04:02.448Z,15.80
2023-05-05T19:06:29.549Z,15.90
2023-05-05T19:08:56.924Z,15.80
2023-05-05T19:11:24.507Z,15.80
2023-05-05T19:13:51.424Z,15.70
2023-05-05T19:16:18.707Z,15.70
2023-05-05T19:18:45.682Z,15.70
2023-05-05T19:21:12.753Z,15.60
2023-05-05T19:23:40.973Z,15.60
2023-05-05T19:26:07.868Z,15.50
2023-05-05T19:28:34.931Z,15.60
2023-05-05T19:31:02.014Z,15.40
2023-05-05T19:33:29.492Z,15.30
2023-05-05T19:35:56.571Z,15.30
2023-05-05T19:38:23.647Z,15.20
2023-05-05T19:40:51.172Z,15.10
2023-05-05T19:43:18.299Z,15.00
2023-05-05T19:45:45.895Z,14.90
2023-05-05T19:48:12.885Z,14.70
2023-05-05T19:50:39.929Z,14.70
2023-05-05T19:53:06.901Z,14.60
2023-05-05T19:55:33.834Z,14.60
2023-05-05T19:58:00.828Z,14.60
2023-05-05T20:00:27.797Z,14.70
2023-05-05T20:02:54.944Z,14.70
2023-05-05T20:05:22.073Z,14.80
2023-05-05T20:07:50.845Z,14.70
2023-05-05T20:10:17.970Z,14.70
2023-05-05T20:12:48.985Z,14.70
2023-05-05T20:15:19.307Z,14.70
2023-05-05T20:17:47.834Z,14.70
2023-05-05T20:20:20.768Z,14.70
2023-05-05T20:22:48.445Z,14.70
2023-05-05T20:25:16.373Z,14.80
2023-05-05T20:27:43.740Z,14.90
2023-05-05T20:30:12.213Z,15.00
2023-05-05T20:32:39.221Z,14.90
2023-05-05T20:35:07.345Z,14.90
2023-05-05T20:37:34.359Z,15.00
2023-05-05T20:40:01.337Z,15.00
2023-05-05T20:42:29.647Z,15.00
2023-05-05T20:44:57.027Z,15.10
2023-05-05T20:47:24.400Z,15.10
2023-05-05T20:49:52.524Z,15.00
2023-05-05T20:52:19.791Z,15.10
2023-05-05T20:54:46.771Z,15.00
2023-05-05T20:57:13.706Z,15.00
2023-05-05T20:59:40.705Z,15.00
2023-05-05T21:02:08.150Z,15.10
2023-05-05T21:04:35.410Z,15.10
2023-05-05T21:07:02.922Z,15.00
2023-05-05T21:09:30.078Z,15.00
2023-05-05T21:11:57.004Z,15.00
2023-05-05T21:14:24.005Z,15.10
2023-05-05T21:16:50.994Z,15.10
2023-05-05T21:19:17.904Z,15.20
2023-05-05T21:21:44.815Z,15.30
2023-05-05T21:24:13.018Z,15.20
2023-05-05T21:26:44.195Z,15.20
2023-05-05T21:29:12.100Z,15.20
2023-05-05T21:31:39.217Z,15.20
2023-05-05T21:34:06.070Z,15.20
2023-05-05T21:36:33.923Z,15.20
2023-05-05T21:39:01.047Z,15.20
2023-05-05T21:41:28.118Z,15.10
2023-05-05T21:43:55.716Z,15.20
2023-05-05T21:46:22.849Z,15.20
2023-05-05T21:48:49.985Z,15.20
2023-05-05T21:51:17.354Z,15.20
2023-05-05T21:53:44.305Z,15.00
2023-05-05T21:56:11.285Z,14.90
2023-05-05T21:58:38.254Z,15.00
2023-05-05T22:01:05.146Z,15.00
2023-05-05T22:03:34.522Z,15.00
2023-05-05T22:06:01.719Z,15.00
2023-05-05T22:08:28.805Z,15.00
2023-05-05T22:10:55.762Z,15.00
2023-05-05T22:13:22.760Z,14.90
2023-05-05T22:15:50.290Z,14.90
2023-05-05T22:18:17.205Z,14.90
2023-05-05T22:20:44.403Z,14.90
2023-05-05T22:23:11.288Z,15.00
2023-05-05T22:25:38.243Z,15.10
2023-05-05T22:28:05.207Z,15.10
2023-05-05T22:30:32.149Z,15.00
2023-05-05T22:32:59.111Z,15.00
2023-05-05T22:35:26.047Z,15.00
2023-05-05T22:37:53.239Z,15.00
2023-05-05T22:40:20.147Z,15.00
2023-05-05T22:42:47.194Z,14.90
2023-05-05T22:45:14.146Z,14.90
2023-05-05T22:47:41.281Z,15.00
2023-05-05T22:50:09.130Z,15.00
2023-05-05T22:52:36.324Z,15.00
2023-05-05T22:55:03.689Z,15.00
2023-05-05T22:57:30.761Z,14.90
2023-05-05T22:59:57.947Z,15.00
2023-05-05T23:02:26.623Z,15.00
2023-05-05T23:04:54.078Z,15.00
2023-05-05T23:07:21.006Z,14.90
2023-05-05T23:09:48.100Z,14.90
2023-05-05T23:12:15.185Z,14.90
2023-05-05T23:14:42.398Z,14.80
2023-05-05T23:17:09.721Z,14.80
2023-05-05T23:19:36.978Z,14.80
2023-05-05T23:22:04.664Z,14.70
2023-05-05T23:24:31.743Z,14.80
2023-05-05T23:27:02.166Z,14.70
2023-05-05T23:29:29.370Z,14.70
2023-05-05T23:31:56.981Z,14.70
2023-05-05T23:34:24.401Z,14.70
2023-05-05T23:36:51.380Z,14.70
2023-05-05T23:39:18.427Z,14.60
2023-05-05T23:41:45.348Z,14.70
2023-05-05T23:44:12.340Z,14.60
2023-05-05T23:46:39.360Z,14.70
2023-05-05T23:49:06.371Z,14.70
2023-05-05T23:51:33.457Z,14.70
2023-05-05T23:54:01.110Z,14.70
2023-05-05T23:56:28.047Z,14.70
2023-05-05T23:58:55.034Z,14.70
